Time;durP1;ratioP1;P1;durP2;ratioP2;P2;SDS_P1;SDS_P2;PMS_P1;PMS_P2;Temp;Humidity;BMP_temperature;BMP_pressure;BME280_temperature;BME280_humidity;BME280_pressure;Samples;Min_cycle;Max_cycle;Signal;HPM_P1;HPM_P2
2022/07/25 00:00:08;;;;;;;5.32;4.10;;;31.30;49.70;;;;;;6184625;23;20032;-76
2022/07/25 00:02:34;;;;;;;4.43;3.70;;;31.30;49.50;;;;;;6184810;23;20032;-76
2022/07/25 00:05:00;;;;;;;5.30;4.20;;;31.20;49.40;;;;;;6185095;23;20001;-76
2022/07/25 00:07:26;;;;;;;7.45;4.40;;;31.20;49.40;;;;;;6185295;23;20001;-77
2022/07/25 00:09:52;;;;;;;5.13;4.05;;;31.20;49.20;;;;;;6186834;23;20298;-77
2022/07/25 00:12:18;;;;;;;5.32;3.95;;;31.20;49.20;;;;;;6186920;23;20059;-77
2022/07/25 00:14:44;;;;;;;6.40;3.92;;;31.10;49.10;;;;;;6186953;23;20096;-76
2022/07/25 00:17:10;;;;;;;7.30;4.53;;;31.10;49.10;;;;;;6186846;23;20036;-77
2022/07/25 00:19:36;;;;;;;5.20;4.07;;;31.10;49.20;;;;;;6187165;23;20005;-76
2022/07/25 00:22:02;;;;;;;8.02;4.28;;;31.10;49.10;;;;;;6186140;23;20005;-78
2022/07/25 00:24:28;;;;;;;4.85;4.00;;;31.00;49.10;;;;;;6186232;23;20428;-77
2022/07/25 00:26:53;;;;;;;9.00;4.60;;;31.10;49.40;;;;;;6186824;23;20049;-77
2022/07/25 00:29:19;;;;;;;6.03;4.05;;;31.10;49.80;;;;;;6186798;23;20001;-77
2022/07/25 00:31:45;;;;;;;6.15;4.18;;;31.00;49.60;;;;;;6186961;23;20050;-77
2022/07/25 00:34:10;;;;;;;5.75;4.35;;;31.00;49.60;;;;;;6186665;23;20001;-77
2022/07/25 00:36:36;;;;;;;5.70;4.45;;;31.00;49.70;;;;;;6185829;23;20359;-77
2022/07/25 00:39:03;;;;;;;7.95;3.70;;;31.00;49.80;;;;;;6186823;23;20059;-76
2022/07/25 00:41:28;;;;;;;5.43;3.88;;;30.90;49.60;;;;;;6186870;23;20043;-76
2022/07/25 00:43:54;;;;;;;8.18;3.92;;;31.00;49.70;;;;;;6159525;23;20322;-76
2022/07/25 00:46:20;;;;;;;4.45;4.05;;;30.90;49.70;;;;;;6186000;23;20092;-76
2022/07/25 00:48:45;;;;;;;5.05;4.22;;;31.00;49.60;;;;;;6185832;23;19997;-76
2022/07/25 00:51:11;;;;;;;5.78;4.28;;;30.90;49.60;;;;;;6186090;23;19998;-77
2022/07/25 00:53:38;;;;;;;6.28;3.95;;;30.90;49.50;;;;;;6186141;23;20100;-76
2022/07/25 00:56:05;;;;;;;6.15;3.88;;;30.90;49.60;;;;;;6186830;23;20009;-76
2022/07/25 00:58:31;;;;;;;5.72;3.95;;;30.90;49.90;;;;;;6184925;23;20411;-76
2022/07/25 01:00:57;;;;;;;4.82;3.70;;;30.80;49.70;;;;;;6186410;23;20001;-76
2022/07/25 01:03:23;;;;;;;5.97;3.47;;;30.90;49.80;;;;;;6186339;23;20033;-76
2022/07/25 01:05:49;;;;;;;5.60;3.80;;;30.80;50.00;;;;;;6186095;23;20420;-76
2022/07/25 01:08:18;;;;;;;5.70;4.30;;;30.80;50.00;;;;;;6186355;23;20479;-77
2022/07/25 01:10:44;;;;;;;8.30;4.30;;;30.80;49.90;;;;;;6185817;23;20001;-77
2022/07/25 01:13:10;;;;;;;5.97;3.90;;;30.80;50.00;;;;;;6185939;23;20024;-77
2022/07/25 01:15:35;;;;;;;5.05;3.25;;;30.80;50.30;;;;;;6186313;23;20396;-77
2022/07/25 01:18:01;;;;;;;7.43;4.28;;;30.70;50.20;;;;;;6186260;23;20360;-77
2022/07/25 01:20:28;;;;;;;4.25;3.85;;;30.70;50.10;;;;;;6186492;23;20001;-77
2022/07/25 01:22:55;;;;;;;4.95;3.95;;;30.70;49.90;;;;;;6185747;23;19997;-77
2022/07/25 01:25:21;;;;;;;7.25;4.13;;;30.70;49.90;;;;;;6186124;23;20024;-77
2022/07/25 01:27:47;;;;;;;5.05;4.32;;;30.70;50.00;;;;;;6186168;23;20123;-77
2022/07/25 01:30:15;;;;;;;7.13;4.25;;;30.70;50.00;;;;;;6186201;23;20081;-77
2022/07/25 01:32:41;;;;;;;6.30;4.57;;;30.60;50.10;;;;;;6185687;23;19997;-77
2022/07/25 01:35:08;;;;;;;5.57;4.25;;;30.60;50.40;;;;;;6185513;23;20009;-77
2022/07/25 01:37:34;;;;;;;5.07;4.57;;;30.60;50.60;;;;;;6185880;23;20356;-77
2022/07/25 01:39:59;;;;;;;7.75;4.40;;;30.50;50.80;;;;;;6185004;23;20019;-77
2022/07/25 01:42:25;;;;;;;6.75;4.70;;;30.50;50.90;;;;;;6185816;23;20032;-77
2022/07/25 01:44:51;;;;;;;6.00;4.38;;;30.40;51.00;;;;;;6185150;23;20008;-76
2022/07/25 01:47:17;;;;;;;5.72;4.20;;;30.30;50.90;;;;;;6185671;23;20357;-76
2022/07/25 01:49:43;;;;;;;8.57;3.85;;;30.30;51.40;;;;;;6185439;23;20005;-76
2022/07/25 01:52:10;;;;;;;6.75;4.88;;;30.30;51.00;;;;;;6185923;23;20005;-76
2022/07/25 01:54:35;;;;;;;7.32;4.90;;;30.30;51.10;;;;;;6159429;23;20009;-76
2022/07/25 01:57:01;;;;;;;9.30;4.15;;;30.30;51.20;;;;;;6186525;23;20060;-76
2022/07/25 01:59:27;;;;;;;5.88;4.57;;;30.30;51.20;;;;;;6185707;23;20005;-76
2022/07/25 02:01:52;;;;;;;8.18;4.90;;;30.20;51.20;;;;;;6186038;23;20008;-76
2022/07/25 02:04:18;;;;;;;7.93;4.82;;;30.20;51.30;;;;;;6185574;23;20012;-77
2022/07/25 02:06:44;;;;;;;7.43;4.95;;;30.20;51.50;;;;;;6185778;23;19997;-77
2022/07/25 02:09:09;;;;;;;12.15;5.75;;;30.20;51.70;;;;;;6159571;23;20007;-77
2022/07/25 02:11:36;;;;;;;8.75;5.13;;;30.20;51.80;;;;;;6185216;23;20002;-77
2022/07/25 02:14:02;;;;;;;6.97;5.47;;;30.20;52.00;;;;;;6185821;23;20005;-77
2022/07/25 02:16:28;;;;;;;7.88;5.20;;;30.20;52.10;;;;;;6185964;23;20008;-77
2022/07/25 02:18:54;;;;;;;7.63;4.68;;;30.20;52.40;;;;;;6185606;23;20005;-76
2022/07/25 02:21:20;;;;;;;9.00;5.97;;;30.20;52.60;;;;;;6186353;23;20055;-76
2022/07/25 02:23:46;;;;;;;6.38;5.60;;;30.20;52.80;;;;;;6185286;23;20005;-76
2022/07/25 02:26:12;;;;;;;7.47;4.78;;;30.20;52.90;;;;;;6185642;23;20064;-76
2022/07/25 02:28:38;;;;;;;8.82;5.20;;;30.10;53.20;;;;;;6185901;23;20463;-77
2022/07/25 02:31:04;;;;;;;7.82;5.90;;;30.10;53.60;;;;;;6185597;23;19997;-76
2022/07/25 02:33:30;;;;;;;9.73;5.57;;;30.10;53.70;;;;;;6185519;23;20328;-76
2022/07/25 02:35:55;;;;;;;9.50;6.20;;;30.00;53.90;;;;;;6185398;23;20008;-77
2022/07/25 02:38:21;;;;;;;6.85;5.40;;;30.00;54.20;;;;;;6185910;23;20495;-76
2022/07/25 02:40:51;;;;;;;8.32;5.60;;;30.00;54.30;;;;;;6185094;23;20088;-77
2022/07/25 02:43:18;;;;;;;7.80;5.32;;;30.00;55.00;;;;;;6185186;23;20005;-77
2022/07/25 02:45:44;;;;;;;5.60;4.40;;;30.00;55.10;;;;;;6184954;23;20392;-77
2022/07/25 02:48:10;;;;;;;7.95;4.90;;;30.00;55.40;;;;;;6185286;23;20012;-77
2022/07/25 02:50:36;;;;;;;7.18;4.97;;;30.00;55.60;;;;;;6184936;23;20021;-77
2022/07/25 02:53:02;;;;;;;5.40;4.78;;;30.00;55.80;;;;;;6185744;23;20431;-77
2022/07/25 02:55:28;;;;;;;5.93;5.03;;;30.00;55.80;;;;;;6184484;23;20004;-77
2022/07/25 02:57:53;;;;;;;7.60;5.13;;;30.00;55.80;;;;;;6185362;23;19997;-77
2022/07/25 03:00:19;;;;;;;6.93;4.85;;;30.00;55.90;;;;;;6184601;23;20316;-77
2022/07/25 03:02:45;;;;;;;7.07;5.13;;;30.00;55.70;;;;;;6185510;23;20064;-77
2022/07/25 03:05:13;;;;;;;8.05;5.88;;;30.00;55.60;;;;;;6158901;23;20005;-77
2022/07/25 03:07:40;;;;;;;5.57;4.90;;;30.00;55.50;;;;;;6158871;23;20451;-77
2022/07/25 03:10:07;;;;;;;7.32;6.05;;;30.00;55.60;;;;;;6184888;23;20471;-77
2022/07/25 03:12:33;;;;;;;11.63;5.72;;;30.00;55.80;;;;;;6158570;23;20308;-77
2022/07/25 03:15:00;;;;;;;5.85;5.07;;;30.00;55.70;;;;;;6185062;23;20084;-77
2022/07/25 03:17:27;;;;;;;8.20;4.85;;;29.90;55.50;;;;;;6184649;23;20039;-77
2022/07/25 03:19:54;;;;;;;6.00;5.40;;;29.90;55.60;;;;;;6185272;23;20036;-77
2022/07/25 03:22:20;;;;;;;7.18;5.32;;;29.90;55.60;;;;;;6185386;23;20054;-77
2022/07/25 03:24:46;;;;;;;6.32;4.70;;;29.90;55.70;;;;;;6184801;23;20008;-76
2022/07/25 03:27:12;;;;;;;6.97;5.78;;;29.90;55.70;;;;;;6185100;23;20052;-77
2022/07/25 03:29:38;;;;;;;9.02;5.13;;;29.90;55.90;;;;;;6184144;23;20364;-75
2022/07/25 03:32:04;;;;;;;5.57;4.45;;;29.90;55.70;;;;;;6184993;23;20001;-76
2022/07/25 03:34:30;;;;;;;7.57;5.07;;;29.80;55.70;;;;;;6184812;23;20008;-76
2022/07/25 03:36:56;;;;;;;4.90;4.40;;;29.80;55.90;;;;;;6185119;23;20426;-77
2022/07/25 03:39:23;;;;;;;4.85;4.20;;;29.80;55.90;;;;;;6183952;23;20021;-75
2022/07/25 03:41:49;;;;;;;6.68;5.00;;;29.80;56.10;;;;;;6183873;23;20027;-76
2022/07/25 03:44:14;;;;;;;8.95;4.47;;;29.80;56.30;;;;;;6184738;23;20428;-76
2022/07/25 03:46:40;;;;;;;5.40;4.70;;;29.80;56.30;;;;;;6185290;23;20005;-76
2022/07/25 03:49:06;;;;;;;7.25;4.90;;;29.80;56.30;;;;;;6184737;23;19997;-77
2022/07/25 03:51:32;;;;;;;6.00;5.18;;;29.80;56.30;;;;;;6185498;23;20005;-76
2022/07/25 03:54:00;;;;;;;5.40;4.30;;;29.80;56.30;;;;;;6184535;23;20009;-76
2022/07/25 03:56:36;;;;;;;5.68;4.60;;;29.70;56.30;;;;;;6184376;23;20005;-76
2022/07/25 03:59:03;;;;;;;7.03;4.88;;;29.70;56.40;;;;;;6184131;23;20079;-76
2022/07/25 04:01:29;;;;;;;7.35;5.18;;;29.60;56.70;;;;;;6183472;23;20067;-76
2022/07/25 04:03:55;;;;;;;5.97;4.45;;;29.60;56.80;;;;;;6184562;23;20357;-76
2022/07/25 04:06:22;;;;;;;5.40;4.25;;;29.50;56.90;;;;;;6184460;23;20072;-76
2022/07/25 04:08:48;;;;;;;4.95;4.45;;;29.40;57.00;;;;;;6184520;23;20048;-76
2022/07/25 04:11:14;;;;;;;7.03;4.38;;;29.40;57.30;;;;;;6184333;23;20009;-76
2022/07/25 04:13:39;;;;;;;9.73;5.18;;;29.40;57.50;;;;;;6184818;23;20080;-76
2022/07/25 04:16:05;;;;;;;6.38;4.38;;;29.40;57.80;;;;;;6184331;23;20065;-76
2022/07/25 04:18:31;;;;;;;5.15;4.00;;;29.40;57.80;;;;;;6184113;23;20047;-76
2022/07/25 04:20:57;;;;;;;6.38;4.70;;;29.40;57.90;;;;;;6184648;23;20055;-76
2022/07/25 04:23:23;;;;;;;7.85;5.13;;;29.40;58.10;;;;;;6183820;23;20076;-76
2022/07/25 04:25:48;;;;;;;5.65;5.15;;;29.30;58.00;;;;;;6184200;23;20028;-80
2022/07/25 04:28:14;;;;;;;6.72;5.43;;;29.40;58.00;;;;;;6184032;23;20050;-74
2022/07/25 04:30:39;;;;;;;8.10;5.28;;;29.40;58.10;;;;;;6185246;23;20072;-76
2022/07/25 04:33:05;;;;;;;6.40;4.68;;;29.40;58.30;;;;;;6184675;23;20096;-73
2022/07/25 04:35:31;;;;;;;5.30;4.22;;;29.30;58.10;;;;;;6184917;23;20001;-73
2022/07/25 04:37:56;;;;;;;6.70;5.05;;;29.30;58.30;;;;;;6184219;23;20001;-74
2022/07/25 04:40:22;;;;;;;5.70;4.72;;;29.30;58.30;;;;;;6184624;23;20013;-74
2022/07/25 04:42:48;;;;;;;5.45;4.45;;;29.30;58.30;;;;;;6158110;23;20064;-74
2022/07/25 04:45:13;;;;;;;6.57;5.10;;;29.30;58.50;;;;;;6184706;23;20005;-73
2022/07/25 04:47:39;;;;;;;5.45;4.80;;;29.40;58.70;;;;;;6184017;23;20033;-73
2022/07/25 04:50:06;;;;;;;10.95;5.25;;;29.40;58.90;;;;;;6184532;23;20006;-73
2022/07/25 04:52:32;;;;;;;7.78;5.50;;;29.40;58.80;;;;;;6184358;23;20081;-74
2022/07/25 04:54:58;;;;;;;7.03;4.25;;;29.30;58.60;;;;;;6186407;23;20036;-73
2022/07/25 04:57:23;;;;;;;5.30;4.75;;;29.30;58.70;;;;;;6159395;23;20009;-78
2022/07/25 04:59:49;;;;;;;4.90;4.20;;;29.30;58.80;;;;;;6186517;23;20011;-78
2022/07/25 05:02:14;;;;;;;5.88;4.95;;;29.30;58.60;;;;;;6185815;23;20088;-74
2022/07/25 05:04:40;;;;;;;11.48;5.32;;;29.30;58.70;;;;;;6186479;23;20008;-73
2022/07/25 05:07:06;;;;;;;5.68;5.03;;;29.30;58.70;;;;;;6159830;23;20059;-74
2022/07/25 05:09:31;;;;;;;5.00;4.50;;;29.30;58.60;;;;;;6186909;23;20005;-74
2022/07/25 05:11:57;;;;;;;5.60;4.05;;;29.30;58.60;;;;;;6186698;23;19997;-74
2022/07/25 05:14:23;;;;;;;6.15;5.05;;;29.30;58.50;;;;;;6186402;23;20021;-74
2022/07/25 05:16:49;;;;;;;6.68;4.18;;;29.30;58.50;;;;;;6186612;23;20001;-74
2022/07/25 05:19:15;;;;;;;10.27;5.53;;;29.30;58.50;;;;;;6186435;23;20001;-73
2022/07/25 05:21:41;;;;;;;6.43;5.28;;;29.40;59.60;;;;;;6186345;23;20007;-73
2022/07/25 05:24:06;;;;;;;6.78;4.65;;;29.30;58.80;;;;;;6186783;23;20420;-74
2022/07/25 05:26:32;;;;;;;5.75;4.53;;;29.30;58.80;;;;;;6186106;23;20386;-73
2022/07/25 05:28:58;;;;;;;5.45;4.78;;;29.40;59.00;;;;;;6186122;23;20004;-73
2022/07/25 05:31:24;;;;;;;4.93;4.50;;;29.40;59.50;;;;;;6186054;23;20001;-73
2022/07/25 05:33:50;;;;;;;5.30;4.72;;;29.40;59.60;;;;;;6186647;23;20032;-74
2022/07/25 05:36:15;;;;;;;5.95;4.80;;;29.50;59.40;;;;;;6186041;23;20604;-74
2022/07/25 05:38:41;;;;;;;5.10;4.60;;;29.50;59.20;;;;;;6186256;23;20005;-74
2022/07/25 05:41:07;;;;;;;5.18;4.65;;;29.50;59.30;;;;;;6185921;23;20013;-73
2022/07/25 05:43:33;;;;;;;5.70;4.68;;;29.50;59.30;;;;;;6186434;23;20415;-74
2022/07/25 05:46:00;;;;;;;7.03;5.63;;;29.50;59.10;;;;;;6186695;23;19997;-74
2022/07/25 05:48:26;;;;;;;9.75;4.35;;;29.50;59.10;;;;;;6185809;23;19997;-73
2022/07/25 05:50:52;;;;;;;7.75;4.95;;;29.60;59.10;;;;;;6185157;23;20016;-73
2022/07/25 05:53:17;;;;;;;5.63;4.80;;;29.60;59.00;;;;;;6185364;23;20396;-73
2022/07/25 05:55:43;;;;;;;5.40;4.35;;;29.60;59.60;;;;;;6185837;23;20027;-74
2022/07/25 05:58:09;;;;;;;8.35;5.80;;;29.60;59.10;;;;;;6186449;23;20345;-74
2022/07/25 06:00:35;;;;;;;5.65;4.75;;;29.70;59.50;;;;;;6186422;23;20076;-73
2022/07/25 06:03:00;;;;;;;6.60;4.60;;;29.70;59.20;;;;;;6184859;23;19997;-74
2022/07/25 06:05:26;;;;;;;7.93;5.60;;;29.70;59.10;;;;;;6185897;23;20128;-74
2022/07/25 06:07:52;;;;;;;5.82;4.93;;;29.70;59.00;;;;;;6185694;23;20001;-74
2022/07/25 06:10:19;;;;;;;6.25;4.72;;;29.70;58.90;;;;;;6186333;23;20028;-74
2022/07/25 06:12:44;;;;;;;6.18;5.03;;;29.80;59.60;;;;;;6185713;23;19997;-74
2022/07/25 06:15:10;;;;;;;5.80;4.47;;;29.80;59.10;;;;;;6186078;23;20301;-74
2022/07/25 06:17:36;;;;;;;6.72;4.43;;;29.90;59.00;;;;;;6184811;23;20442;-74
2022/07/25 06:20:02;;;;;;;5.32;4.80;;;29.90;59.30;;;;;;6185231;23;20008;-74
2022/07/25 06:22:29;;;;;;;5.80;4.80;;;29.90;59.20;;;;;;6186032;23;20008;-74
2022/07/25 06:24:55;;;;;;;4.97;4.43;;;29.90;59.10;;;;;;6185819;23;20012;-74
2022/07/25 06:27:21;;;;;;;7.43;4.63;;;29.90;59.00;;;;;;6185555;23;19997;-74
2022/07/25 06:29:47;;;;;;;5.07;4.30;;;30.00;58.90;;;;;;6185456;23;20020;-74
2022/07/25 06:32:12;;;;;;;4.72;4.28;;;30.00;58.80;;;;;;6185896;23;20024;-74
2022/07/25 06:34:38;;;;;;;5.28;4.18;;;30.10;58.70;;;;;;6185158;23;20005;-74
2022/07/25 06:37:04;;;;;;;4.68;4.03;;;30.10;58.50;;;;;;6185035;23;20005;-75
2022/07/25 06:39:30;;;;;;;5.20;4.00;;;30.10;58.10;;;;;;6158465;23;20012;-75
2022/07/25 06:41:57;;;;;;;8.93;4.15;;;30.20;58.10;;;;;;6185358;23;20012;-75
2022/07/25 06:44:22;;;;;;;5.43;3.70;;;30.20;57.80;;;;;;6185382;23;20085;-75
2022/07/25 06:46:48;;;;;;;6.03;4.28;;;30.30;57.90;;;;;;6184949;23;20028;-73
2022/07/25 06:49:14;;;;;;;5.00;4.50;;;30.30;58.10;;;;;;6185632;23;20047;-74
2022/07/25 06:51:39;;;;;;;4.72;4.32;;;30.30;57.80;;;;;;6185211;23;20001;-74
2022/07/25 06:54:05;;;;;;;4.47;4.07;;;30.30;57.70;;;;;;6185532;23;20005;-75
2022/07/25 06:56:31;;;;;;;6.65;4.22;;;30.40;57.90;;;;;;6185013;23;20474;-75
2022/07/25 06:58:58;;;;;;;4.95;4.03;;;30.40;57.70;;;;;;6184194;23;20014;-75
2022/07/25 07:01:23;;;;;;;3.78;3.35;;;30.50;57.60;;;;;;6185546;23;20005;-75
2022/07/25 07:03:49;;;;;;;5.43;4.78;;;30.50;57.50;;;;;;6158583;23;20459;-75
2022/07/25 07:06:15;;;;;;;8.55;4.38;;;30.50;57.40;;;;;;6185098;23;20390;-75
2022/07/25 07:31:52;;;;;;;4.53;3.75;;;30.50;55.20;;;;;;6227740;22;1348616;-75
2022/07/25 07:34:17;;;;;;;6.65;4.00;;;31.00;55.30;;;;;;6284929;22;20045;-75
2022/07/25 07:36:43;;;;;;;4.35;3.80;;;31.10;55.20;;;;;;6284812;22;20008;-75
2022/07/25 07:39:09;;;;;;;3.80;3.50;;;31.10;55.00;;;;;;6285280;22;19999;-75
2022/07/25 07:41:35;;;;;;;5.45;4.95;;;31.20;55.10;;;;;;6257030;22;20003;-75
2022/07/25 07:44:00;;;;;;;5.00;4.25;;;31.20;54.90;;;;;;6285045;22;20317;-75
2022/07/25 07:46:26;;;;;;;4.78;4.10;;;31.30;54.70;;;;;;6284322;22;20000;-76
2022/07/25 07:48:52;;;;;;;5.35;4.40;;;31.30;54.40;;;;;;6284774;22;20067;-75
2022/07/25 07:51:17;;;;;;;4.35;3.95;;;31.40;54.60;;;;;;6255214;22;20015;-76
2022/07/25 07:56:27;;;;;;;5.43;3.85;;;31.50;54.50;;;;;;6285054;22;20341;-76
2022/07/25 07:58:53;;;;;;;6.90;4.20;;;31.50;54.10;;;;;;6282398;22;20000;-76
2022/07/25 08:01:19;;;;;;;5.65;4.53;;;31.50;53.90;;;;;;6284355;22;20011;-78
2022/07/25 08:03:45;;;;;;;6.00;3.75;;;31.60;53.70;;;;;;6283981;22;19999;-82
2022/07/25 08:06:10;;;;;;;5.65;4.72;;;31.60;53.60;;;;;;6284974;22;20071;-83
2022/07/25 08:08:36;;;;;;;7.03;4.93;;;31.70;54.10;;;;;;6258222;22;20004;-83
2022/07/25 08:11:09;;;;;;;5.60;4.47;;;31.70;53.40;;;;;;6256993;22;20079;-75
2022/07/25 08:13:36;;;;;;;5.43;4.63;;;31.90;54.00;;;;;;6282684;22;20000;-76
2022/07/25 08:16:03;;;;;;;4.70;3.50;;;31.80;53.10;;;;;;6284320;22;20000;-76
2022/07/25 08:18:31;;;;;;;4.10;3.60;;;31.90;53.20;;;;;;6283889;22;20066;-76
2022/07/25 08:20:59;;;;;;;5.50;4.10;;;32.00;53.50;;;;;;6257061;22;20003;-75
2022/07/25 08:23:26;;;;;;;5.43;3.80;;;32.00;53.30;;;;;;6283945;22;20413;-75
2022/07/25 08:25:53;;;;;;;5.13;4.22;;;32.10;53.20;;;;;;6284588;22;20006;-76
2022/07/25 08:28:19;;;;;;;4.40;4.00;;;32.10;53.00;;;;;;6283690;22;19995;-76
2022/07/25 08:30:45;;;;;;;5.13;4.63;;;32.20;53.20;;;;;;6256575;22;20023;-81
2022/07/25 08:33:14;;;;;;;8.02;4.22;;;32.20;53.20;;;;;;6276004;22;20000;-80
2022/07/25 08:35:53;;;;;;;7.55;3.88;;;32.20;52.80;;;;;;6276942;22;20337;-76
2022/07/25 08:38:20;;;;;;;4.20;3.75;;;32.20;52.70;;;;;;6250318;22;20012;-77
2022/07/25 08:40:46;;;;;;;5.97;4.47;;;32.30;53.40;;;;;;6277002;22;20007;-77
2022/07/25 08:43:14;;;;;;;9.10;5.13;;;32.30;53.20;;;;;;6249606;22;20082;-77
2022/07/25 08:45:45;;;;;;;8.35;4.43;;;32.40;52.50;;;;;;6250116;22;20000;-77
2022/07/25 08:48:12;;;;;;;5.20;3.95;;;32.50;52.20;;;;;;6277218;22;20075;-77
2022/07/25 08:50:38;;;;;;;8.98;5.43;;;32.50;53.10;;;;;;6277215;22;20000;-77
2022/07/25 08:53:04;;;;;;;4.88;4.10;;;32.60;53.30;;;;;;6276066;22;20445;-78
2022/07/25 08:55:30;;;;;;;4.40;4.00;;;32.70;53.20;;;;;;6274691;22;20038;-77
2022/07/25 08:57:56;;;;;;;4.88;4.03;;;32.80;53.60;;;;;;6274924;22;20008;-78
2022/07/25 09:00:25;;;;;;;5.28;4.05;;;32.90;53.60;;;;;;6248689;22;20291;-78
2022/07/25 09:02:55;;;;;;;5.00;4.50;;;33.00;53.50;;;;;;6246817;22;20008;-84
2022/07/25 09:05:22;;;;;;;5.35;4.20;;;33.00;53.10;;;;;;6250291;22;20003;-78
2022/07/25 09:07:49;;;;;;;4.28;3.88;;;33.10;53.10;;;;;;6276945;22;19999;-77
2022/07/25 09:10:26;;;;;;;5.03;4.53;;;33.20;53.30;;;;;;6277686;22;20081;-78
2022/07/25 09:12:57;;;;;;;5.38;4.35;;;33.30;53.10;;;;;;6276472;22;20352;-78
2022/07/25 09:15:46;;;;;;;4.78;4.28;;;33.30;52.90;;;;;;6277018;22;20027;-78
2022/07/25 09:18:14;;;;;;;4.27;3.70;;;33.40;52.40;;;;;;6249873;22;20518;-78
2022/07/25 09:20:42;;;;;;;3.83;3.42;;;33.40;52.10;;;;;;6273753;22;20019;-79
2022/07/25 09:23:09;;;;;;;7.22;4.65;;;33.50;51.90;;;;;;6274082;22;19999;-84
2022/07/25 09:25:35;;;;;;;6.55;4.43;;;33.50;52.00;;;;;;6277145;22;19996;-83
2022/07/25 09:28:13;;;;;;;4.72;4.22;;;33.60;51.90;;;;;;6275558;22;20000;-82
2022/07/25 09:30:40;;;;;;;10.65;4.47;;;33.70;51.20;;;;;;6276333;22;20066;-81
2022/07/25 09:33:06;;;;;;;8.90;4.18;;;33.70;51.40;;;;;;6276963;22;20291;-83
2022/07/25 09:35:34;;;;;;;6.82;5.07;;;33.80;51.40;;;;;;6277555;22;20030;-80
2022/07/25 09:38:12;;;;;;;6.22;4.57;;;33.80;50.80;;;;;;6277166;22;20053;-79
2022/07/25 09:40:38;;;;;;;7.05;4.25;;;33.80;51.00;;;;;;6277266;22;20057;-79
2022/07/25 09:43:05;;;;;;;5.50;4.75;;;33.90;51.10;;;;;;6276756;22;20056;-79
2022/07/25 09:45:31;;;;;;;9.25;4.97;;;33.90;51.20;;;;;;6277354;22;20477;-79
2022/07/25 09:48:03;;;;;;;4.43;4.03;;;34.10;51.20;;;;;;6276947;22;19999;-80
2022/07/25 09:50:31;;;;;;;7.93;4.10;;;34.20;51.00;;;;;;6276814;22;20380;-79
2022/07/25 09:53:00;;;;;;;4.68;3.28;;;34.20;50.60;;;;;;6277185;22;20000;-79
2022/07/25 09:55:27;;;;;;;6.03;4.40;;;34.30;50.40;;;;;;6277163;22;20310;-82
2022/07/25 09:57:53;;;;;;;5.05;4.55;;;34.40;50.20;;;;;;6275834;22;20332;-82
2022/07/25 10:00:24;;;;;;;4.95;4.45;;;34.40;49.70;;;;;;6276130;22;20087;-81
2022/07/25 10:03:10;;;;;;;4.75;4.15;;;34.50;49.50;;;;;;6276058;22;20053;-82
2022/07/25 10:05:48;;;;;;;4.57;3.88;;;34.60;49.50;;;;;;6277130;22;19996;-82
2022/07/25 10:08:14;;;;;;;5.55;4.63;;;34.70;49.50;;;;;;6274897;22;20334;-81
2022/07/25 10:10:41;;;;;;;7.57;4.53;;;34.90;49.20;;;;;;6277238;22;20365;-81
2022/07/25 10:13:14;;;;;;;5.22;4.72;;;35.00;49.00;;;;;;6249782;22;20007;-81
2022/07/25 10:15:51;;;;;;;7.25;4.30;;;35.10;48.80;;;;;;6277027;22;20079;-82
2022/07/25 10:18:23;;;;;;;4.38;3.97;;;35.20;48.40;;;;;;6276305;22;20008;-82
2022/07/25 10:20:53;;;;;;;5.85;4.10;;;35.20;48.50;;;;;;6276194;22;20551;-81
2022/07/25 10:23:20;;;;;;;4.88;4.25;;;35.40;48.70;;;;;;6276706;22;20010;-80
2022/07/25 10:25:57;;;;;;;6.20;4.00;;;35.50;48.10;;;;;;6276868;22;20019;-81
2022/07/25 10:28:35;;;;;;;5.80;4.43;;;35.50;48.10;;;;;;6275816;22;20011;-82
2022/07/25 10:31:00;;;;;;;5.03;4.63;;;35.60;47.90;;;;;;6276052;22;20015;-78
2022/07/25 10:33:26;;;;;;;5.80;4.70;;;35.70;48.20;;;;;;6276327;22;20410;-82
2022/07/25 10:35:52;;;;;;;4.85;4.38;;;35.90;48.50;;;;;;6276634;22;20379;-83
2022/07/25 10:38:23;;;;;;;7.28;4.85;;;36.00;48.50;;;;;;6248419;22;20012;-82
2022/07/25 10:40:49;;;;;;;6.05;4.13;;;36.10;48.60;;;;;;6276850;22;20004;-82
2022/07/25 10:43:21;;;;;;;4.90;4.40;;;36.20;48.60;;;;;;6276655;22;20002;-78
2022/07/25 10:45:55;;;;;;;5.78;4.45;;;36.40;48.40;;;;;;6276511;22;19996;-78
2022/07/25 10:48:29;;;;;;;8.57;4.90;;;36.40;47.90;;;;;;6276042;22;20011;-79
2022/07/25 10:51:03;;;;;;;5.22;4.68;;;36.50;48.00;;;;;;6276941;22;20027;-83
2022/07/25 10:53:38;;;;;;;6.03;4.60;;;36.60;47.90;;;;;;6248623;22;20096;-82
2022/07/25 10:56:20;;;;;;;4.72;4.22;;;36.70;47.30;;;;;;6276375;22;19999;-83
2022/07/25 10:58:58;;;;;;;5.78;4.28;;;36.80;46.80;;;;;;6249481;22;20015;-82
2022/07/25 11:01:32;;;;;;;7.30;4.43;;;36.80;46.50;;;;;;6276329;22;20434;-82
2022/07/25 11:04:04;;;;;;;5.05;4.55;;;36.90;46.60;;;;;;6275079;22;20417;-82
2022/07/25 11:06:31;;;;;;;5.70;3.80;;;37.10;46.50;;;;;;6275912;22;19999;-83
2022/07/25 11:08:59;;;;;;;6.25;5.05;;;37.20;45.90;;;;;;6276238;22;20392;-83
2022/07/25 11:11:39;;;;;;;6.15;4.53;;;37.30;45.60;;;;;;6276114;22;20000;-82
2022/07/25 11:14:24;;;;;;;13.43;4.50;;;37.40;45.50;;;;;;6276303;22;19999;-82
2022/07/25 11:16:52;;;;;;;11.95;6.78;;;37.50;45.20;;;;;;6275829;22;20011;-81
2022/07/25 11:19:28;;;;;;;11.23;5.20;;;37.70;44.40;;;;;;6275497;22;20006;-82
2022/07/25 11:21:59;;;;;;;6.38;5.10;;;37.80;44.90;;;;;;6276901;22;20011;-77
2022/07/25 11:24:36;;;;;;;6.18;4.65;;;38.00;45.30;;;;;;6275257;22;20003;-77
2022/07/25 11:27:03;;;;;;;4.85;4.40;;;38.10;45.00;;;;;;6276266;22;20091;-78
2022/07/25 11:29:28;;;;;;;17.52;4.30;;;38.30;44.70;;;;;;6275579;22;20003;-79
2022/07/25 11:32:08;;;;;;;8.05;4.03;;;38.50;44.80;;;;;;6276684;22;20083;-78
2022/07/25 11:34:37;;;;;;;5.00;4.47;;;38.70;44.10;;;;;;6276667;22;20011;-77
2022/07/25 11:37:05;;;;;;;6.20;4.65;;;38.90;43.90;;;;;;6276123;22;20379;-77
2022/07/25 11:39:33;;;;;;;8.50;5.07;;;39.10;43.80;;;;;;6275165;22;20000;-77
2022/07/25 11:42:00;;;;;;;8.57;5.03;;;39.40;43.70;;;;;;6276038;22;19996;-77
2022/07/25 11:44:35;;;;;;;6.57;5.00;;;39.70;42.90;;;;;;6275145;22;20000;-77
2022/07/25 11:47:04;;;;;;;8.32;5.28;;;40.10;42.00;;;;;;6276001;22;20411;-77
2022/07/25 11:49:30;;;;;;;6.22;4.72;;;40.50;41.00;;;;;;6275128;22;20014;-78
2022/07/25 11:51:56;;;;;;;5.93;4.75;;;40.60;41.30;;;;;;6276454;22;20078;-77
2022/07/25 11:54:22;;;;;;;7.70;4.85;;;40.80;41.40;;;;;;6275416;22;20035;-78
2022/07/25 11:56:47;;;;;;;9.02;5.47;;;41.00;40.00;;;;;;6247539;22;20033;-78
2022/07/25 11:59:15;;;;;;;6.53;4.45;;;41.20;40.40;;;;;;6274896;22;19999;-78
2022/07/25 12:01:43;;;;;;;11.43;4.65;;;41.40;38.80;;;;;;6275315;22;20464;-78
2022/07/25 12:04:19;;;;;;;8.55;4.68;;;41.60;39.20;;;;;;6275932;22;19996;-78
2022/07/25 12:06:47;;;;;;;4.80;4.30;;;41.70;37.00;;;;;;6276868;22;20130;-78
2022/07/25 12:09:20;;;;;;;9.87;3.47;;;41.80;38.40;;;;;;6277561;22;20062;-78
2022/07/25 12:11:48;;;;;;;6.32;4.25;;;41.90;38.40;;;;;;6277899;22;20219;-78
2022/07/25 12:14:15;;;;;;;11.07;4.30;;;42.00;38.60;;;;;;6277187;22;20004;-81
2022/07/25 12:16:41;;;;;;;11.25;4.65;;;42.30;38.30;;;;;;6278080;22;20000;-81
2022/07/25 12:19:20;;;;;;;5.03;4.20;;;42.40;37.80;;;;;;6277320;22;20128;-82
2022/07/25 12:21:46;;;;;;;10.02;4.78;;;42.50;37.00;;;;;;6276631;22;20024;-81
2022/07/25 12:24:12;;;;;;;8.60;4.47;;;42.70;37.60;;;;;;6276091;22;20318;-77
2022/07/25 12:26:38;;;;;;;13.07;5.82;;;42.70;37.50;;;;;;6277515;22;19996;-84
2022/07/25 12:29:03;;;;;;;6.32;4.40;;;42.70;36.80;;;;;;6249698;22;20100;-82
2022/07/25 12:31:29;;;;;;;5.45;4.00;;;42.80;37.60;;;;;;6277665;22;20365;-80
2022/07/25 12:33:55;;;;;;;7.35;4.50;;;42.90;37.30;;;;;;6277239;22;20026;-83
2022/07/25 12:36:21;;;;;;;6.80;4.20;;;42.90;36.80;;;;;;6276929;22;20054;-81
2022/07/25 12:38:46;;;;;;;6.13;4.47;;;43.00;36.30;;;;;;6276994;22;20004;-83
2022/07/25 12:41:12;;;;;;;6.05;3.95;;;43.10;36.20;;;;;;6276139;22;20012;-83
2022/07/25 12:43:38;;;;;;;4.10;3.63;;;43.10;36.10;;;;;;6277250;22;20398;-82
2022/07/25 12:46:05;;;;;;;6.43;4.07;;;43.10;36.10;;;;;;6275994;22;20011;-83
2022/07/25 12:48:30;;;;;;;5.35;4.35;;;43.20;35.20;;;;;;6277082;22;20045;-82
2022/07/25 12:50:56;;;;;;;3.75;3.35;;;43.20;35.60;;;;;;6276626;22;20003;-82
2022/07/25 12:53:22;;;;;;;7.13;3.97;;;43.30;35.20;;;;;;6277605;22;20004;-82
2022/07/25 12:55:48;;;;;;;12.80;5.55;;;43.30;35.40;;;;;;6276403;22;20319;-82
2022/07/25 12:58:16;;;;;;;7.00;4.75;;;43.30;34.60;;;;;;6276855;22;20004;-82
2022/07/25 13:00:43;;;;;;;6.28;3.60;;;43.20;34.20;;;;;;6249609;22;20004;-77
2022/07/25 13:03:08;;;;;;;9.57;3.83;;;43.20;35.00;;;;;;6277726;22;20070;-78
2022/07/25 13:05:34;;;;;;;4.82;3.58;;;43.00;35.10;;;;;;6277203;22;20085;-77
2022/07/25 13:08:02;;;;;;;6.95;4.00;;;43.00;35.10;;;;;;6277787;22;19996;-77
2022/07/25 13:10:28;;;;;;;6.28;3.53;;;42.90;35.00;;;;;;6276855;22;20079;-78